createdAt,value
2023-04-15T00:01:49.432Z,98.86
2023-04-15T00:04:52.875Z,98.39
2023-04-15T00:07:56.016Z,98.38
2023-04-15T00:11:03.143Z,98.42
2023-04-15T00:14:06.451Z,99.17
2023-04-15T00:17:09.558Z,98.98
2023-04-15T00:20:12.476Z,99.80
2023-04-15T00:23:15.872Z,99.68
2023-04-15T00:26:19.677Z,99.89
2023-04-15T00:29:23.239Z,100.00
2023-04-15T00:32:27.142Z,100.00
2023-04-15T00:35:32.936Z,100.00
2023-04-15T00:38:38.255Z,99.17
2023-04-15T00:41:41.682Z,99.90
2023-04-15T00:44:44.586Z,99.43
2023-04-15T00:47:47.738Z,99.57
2023-04-15T00:50:50.698Z,99.06
2023-04-15T00:53:53.734Z,98.98
2023-04-15T00:56:56.805Z,99.49
2023-04-15T01:00:01.351Z,99.39
2023-04-15T01:03:04.292Z,99.56
2023-04-15T01:06:08.667Z,99.48
2023-04-15T01:09:12.118Z,99.46
2023-04-15T01:12:17.249Z,99.27
2023-04-15T01:15:21.551Z,99.07
2023-04-15T01:18:24.864Z,99.23
2023-04-15T01:21:28.259Z,99.21
2023-04-15T01:24:33.503Z,99.12
2023-04-15T01:27:40.277Z,99.31
2023-04-15T01:30:44.881Z,98.92
2023-04-15T01:33:47.781Z,99.47
2023-04-15T01:36:51.513Z,98.78
2023-04-15T01:39:54.457Z,99.03
2023-04-15T01:42:57.874Z,99.30
2023-04-15T01:46:00.696Z,99.20
2023-04-15T01:49:03.796Z,99.15
2023-04-15T01:52:08.237Z,98.81
2023-04-15T01:55:12.815Z,99.28
2023-04-15T01:58:15.954Z,99.61
2023-04-15T02:01:20.575Z,99.34
2023-04-15T02:04:24.211Z,99.47
2023-04-15T02:07:29.079Z,99.47
2023-04-15T02:10:32.313Z,99.25
2023-04-15T02:13:35.338Z,99.17
2023-04-15T02:16:38.542Z,99.22
2023-04-15T02:19:41.430Z,99.07
2023-04-15T02:22:44.537Z,98.90
2023-04-15T02:25:53.447Z,98.81
2023-04-15T02:28:57.362Z,98.59
2023-04-15T02:32:00.174Z,98.84
2023-04-15T02:35:05.785Z,98.95
2023-04-15T02:38:08.760Z,99.69
2023-04-15T02:41:11.883Z,99.47
2023-04-15T02:44:14.672Z,100.00
2023-04-15T02:47:19.225Z,100.00
2023-04-15T02:50:23.812Z,99.92
2023-04-15T02:53:27.052Z,99.84
2023-04-15T02:56:31.072Z,100.00
2023-04-15T02:59:34.141Z,100.00
2023-04-15T03:02:38.922Z,100.00
2023-04-15T03:05:42.421Z,100.00
2023-04-15T03:08:45.857Z,100.00
2023-04-15T03:11:49.432Z,100.00
2023-04-15T03:14:52.544Z,100.00
2023-04-15T03:17:57.555Z,100.00
2023-04-15T03:21:00.483Z,100.00
2023-04-15T03:24:04.053Z,100.00
2023-04-15T03:27:08.185Z,99.53
2023-04-15T03:30:12.537Z,99.18
2023-04-15T03:33:16.447Z,98.98
2023-04-15T03:36:19.819Z,98.55
2023-04-15T03:39:22.735Z,97.22
2023-04-15T03:42:26.096Z,97.79
2023-04-15T03:45:29.343Z,97.62
2023-04-15T03:48:32.598Z,97.84
2023-04-15T03:51:35.921Z,98.42
2023-04-15T03:54:38.894Z,99.54
2023-04-15T03:57:41.983Z,99.88
2023-04-15T04:00:45.049Z,100.00
2023-04-15T04:03:48.167Z,100.00
2023-04-15T04:06:51.227Z,100.00
2023-04-15T04:09:54.250Z,100.00
2023-04-15T04:12:57.091Z,100.00
2023-04-15T04:16:00.299Z,100.00
2023-04-15T04:19:03.250Z,100.00
2023-04-15T04:22:06.877Z,100.00
2023-04-15T04:25:10.682Z,100.00
2023-04-15T04:28:13.805Z,100.00
2023-04-15T04:31:17.235Z,100.00
2023-04-15T04:34:20.476Z,100.00
2023-04-15T04:37:24.813Z,100.00
2023-04-15T04:40:27.826Z,100.00
2023-04-15T04:43:30.921Z,100.00
2023-04-15T04:46:34.225Z,100.00
2023-04-15T04:49:37.113Z,100.00
2023-04-15T04:52:40.380Z,100.00
2023-04-15T04:55:42.946Z,99.92
2023-04-15T04:58:46.060Z,99.39
2023-04-15T05:01:48.755Z,99.25
2023-04-15T05:04:54.549Z,98.56
2023-04-15T05:07:57.692Z,98.00
2023-04-15T05:11:01.101Z,97.79
2023-04-15T05:14:04.096Z,97.47
2023-04-15T05:17:07.100Z,97.28
2023-04-15T05:20:10.749Z,96.11
2023-04-15T05:23:14.089Z,95.54
2023-04-15T05:26:17.906Z,94.99
2023-04-15T05:29:21.008Z,93.31
2023-04-15T05:32:23.689Z,89.87
2023-04-15T05:35:27.399Z,89.79
2023-04-15T05:38:30.087Z,90.11
2023-04-15T05:41:33.233Z,90.24
2023-04-15T05:44:35.842Z,90.32
2023-04-15T05:47:38.896Z,90.34
2023-04-15T05:50:42.592Z,88.95
2023-04-15T05:53:46.488Z,91.18
2023-04-15T05:56:49.668Z,91.79
2023-04-15T05:59:53.112Z,91.06
2023-04-15T06:02:58.064Z,91.25
2023-04-15T06:06:01.669Z,91.62
2023-04-15T06:09:06.363Z,91.97
2023-04-15T06:12:12.487Z,91.63
2023-04-15T06:15:15.401Z,90.62
2023-04-15T06:18:18.499Z,90.03
2023-04-15T06:21:21.324Z,88.00
2023-04-15T06:24:24.405Z,86.79
2023-04-15T06:27:27.595Z,86.66
2023-04-15T06:30:30.751Z,84.42
2023-04-15T06:33:33.418Z,83.48
2023-04-15T06:36:36.492Z,82.78
2023-04-15T06:39:39.551Z,83.23
2023-04-15T06:42:42.730Z,82.30
2023-04-15T06:45:46.098Z,81.15
2023-04-15T06:48:49.170Z,81.11
2023-04-15T06:51:51.946Z,82.91
2023-04-15T06:54:54.935Z,84.33
2023-04-15T06:57:57.797Z,84.53
2023-04-15T07:01:00.978Z,85.85
2023-04-15T07:04:04.253Z,86.85
2023-04-15T07:07:08.418Z,87.56
2023-04-15T07:10:12.344Z,89.08
2023-04-15T07:13:15.460Z,88.59
2023-04-15T07:16:18.595Z,89.60
2023-04-15T07:19:22.054Z,89.26
2023-04-15T07:22:25.301Z,89.40
2023-04-15T07:25:28.321Z,89.60
2023-04-15T07:28:31.176Z,91.29
2023-04-15T07:31:34.432Z,90.03
2023-04-15T07:34:38.200Z,89.50
2023-04-15T07:37:42.142Z,89.45
2023-04-15T07:40:44.960Z,89.49
2023-04-15T07:43:48.992Z,88.58
2023-04-15T07:46:51.703Z,87.24
2023-04-15T07:49:54.647Z,86.56
2023-04-15T07:52:57.912Z,86.07
2023-04-15T07:56:00.794Z,86.96
2023-04-15T07:59:05.017Z,85.12
2023-04-15T08:02:08.837Z,83.28
2023-04-15T08:05:11.971Z,82.32
2023-04-15T08:08:14.623Z,82.38
2023-04-15T08:11:17.937Z,82.83
2023-04-15T08:14:21.051Z,82.14
2023-04-15T08:17:24.565Z,80.60
2023-04-15T08:20:27.349Z,80.47
2023-04-15T08:23:30.431Z,82.03
2023-04-15T08:26:33.500Z,81.53
2023-04-15T08:29:36.697Z,80.31
2023-04-15T08:32:39.481Z,78.47
2023-04-15T08:35:42.483Z,78.44
2023-04-15T08:38:45.814Z,76.27
2023-04-15T08:42:02.081Z,75.17
2023-04-15T08:45:06.024Z,75.54
2023-04-15T08:48:14.427Z,76.05
2023-04-15T08:51:18.312Z,77.28
2023-04-15T08:54:21.601Z,78.11
2023-04-15T08:57:28.622Z,79.80
2023-04-15T09:00:32.721Z,80.99
2023-04-15T09:03:36.030Z,82.10
2023-04-15T09:06:40.958Z,83.66
2023-04-15T09:09:43.752Z,82.80
2023-04-15T09:12:46.880Z,82.31
2023-04-15T09:15:50.433Z,81.68
2023-04-15T09:18:54.319Z,81.71
2023-04-15T09:21:59.666Z,81.87
2023-04-15T09:25:02.778Z,82.15
2023-04-15T09:28:05.578Z,81.83
2023-04-15T09:31:08.718Z,82.06
2023-04-15T09:34:11.778Z,82.40
2023-04-15T09:37:31.766Z,82.50
2023-04-15T09:40:42.306Z,82.56
2023-04-15T09:43:46.105Z,83.77
2023-04-15T09:46:48.642Z,84.43
2023-04-15T09:49:59.390Z,84.57
2023-04-15T09:53:04.163Z,83.34
2023-04-15T09:56:09.196Z,83.01
2023-04-15T09:59:12.227Z,82.65
2023-04-15T10:02:19.240Z,82.04
2023-04-15T10:05:23.746Z,81.37
2023-04-15T10:08:31.744Z,81.06
2023-04-15T10:11:36.322Z,80.51
2023-04-15T10:14:41.060Z,80.26
2023-04-15T10:17:45.648Z,80.11
2023-04-15T10:20:49.351Z,80.98
2023-04-15T10:23:52.440Z,80.96
2023-04-15T10:26:55.676Z,81.16
2023-04-15T10:30:01.053Z,81.59
2023-04-15T10:33:05.506Z,82.29
2023-04-15T10:36:09.014Z,82.85
2023-04-15T10:39:47.232Z,84.24
2023-04-15T10:42:50.295Z,86.14
2023-04-15T10:45:53.927Z,86.14
2023-04-15T10:48:57.851Z,85.48
2023-04-15T10:52:01.566Z,84.89
2023-04-15T10:55:12.667Z,84.23
2023-04-15T10:58:15.725Z,83.81
2023-04-15T11:01:23.437Z,82.38
2023-04-15T11:04:55.355Z,82.56
2023-04-15T11:07:58.887Z,82.80
2023-04-15T11:11:01.987Z,83.32
2023-04-15T11:14:05.212Z,82.65
2023-04-15T11:17:08.170Z,82.16
2023-04-15T11:20:16.331Z,82.09
2023-04-15T11:23:29.004Z,81.91
2023-04-15T11:26:32.479Z,81.95
2023-04-15T11:29:35.192Z,82.81
2023-04-15T11:32:42.298Z,82.95
2023-04-15T11:35:45.236Z,83.64
2023-04-15T11:38:48.252Z,85.94
2023-04-15T11:41:50.864Z,88.75
2023-04-15T11:45:16.504Z,90.61
2023-04-15T11:48:20.377Z,92.10
2023-04-15T11:51:23.494Z,92.06
2023-04-15T11:54:28.837Z,92.61
2023-04-15T11:57:32.418Z,92.34
2023-04-15T12:00:35.950Z,92.41
2023-04-15T12:03:40.848Z,91.23
2023-04-15T12:06:43.882Z,89.03
2023-04-15T12:09:55.330Z,87.43
2023-04-15T12:12:57.971Z,85.73
2023-04-15T12:16:00.900Z,81.56
2023-04-15T12:19:10.499Z,79.00
2023-04-15T12:22:18.117Z,77.89
2023-04-15T12:25:34.702Z,78.79
2023-04-15T12:28:41.252Z,79.43
2023-04-15T12:31:53.627Z,79.03
2023-04-15T12:34:57.583Z,77.30
2023-04-15T12:38:00.558Z,75.84
2023-04-15T12:41:04.118Z,76.97
2023-04-15T12:44:06.955Z,76.63
2023-04-15T12:47:13.760Z,75.33
2023-04-15T12:50:18.271Z,74.86
2023-04-15T12:53:21.881Z,73.23
2023-04-15T12:56:25.012Z,73.43
2023-04-15T12:59:29.314Z,73.78
2023-04-15T13:02:32.242Z,74.32
2023-04-15T13:05:37.209Z,75.05
2023-04-15T13:08:42.686Z,76.04
2023-04-15T13:11:51.294Z,77.31
2023-04-15T13:14:53.866Z,78.51
2023-04-15T13:17:56.925Z,78.89
2023-04-15T13:20:59.687Z,78.61
2023-04-15T13:24:02.775Z,79.79
2023-04-15T13:27:05.986Z,79.93
2023-04-15T13:30:09.510Z,80.18
2023-04-15T13:33:12.437Z,82.00
2023-04-15T13:36:15.730Z,83.32
2023-04-15T13:39:18.545Z,83.28
2023-04-15T13:42:22.915Z,83.73
2023-04-15T13:45:26.383Z,84.18
2023-04-15T13:48:29.309Z,83.23
2023-04-15T13:51:33.128Z,82.41
2023-04-15T13:54:37.133Z,81.93
2023-04-15T13:57:41.448Z,81.78
2023-04-15T14:00:44.645Z,81.03
2023-04-15T14:03:47.942Z,80.87
2023-04-15T14:06:51.171Z,79.74
2023-04-15T14:09:55.251Z,78.41
2023-04-15T14:12:57.853Z,77.77
2023-04-15T14:16:00.802Z,77.56
2023-04-15T14:19:03.721Z,75.84
2023-04-15T14:22:07.633Z,75.90
2023-04-15T14:25:17.217Z,74.19
2023-04-15T14:28:26.415Z,74.37
2023-04-15T14:31:29.134Z,74.06
2023-04-15T14:34:32.035Z,74.36
2023-04-15T14:37:34.647Z,72.44
2023-04-15T14:40:37.678Z,71.67
2023-04-15T14:43:40.991Z,70.77
2023-04-15T14:46:43.867Z,69.85
2023-04-15T14:49:46.708Z,69.28
2023-04-15T14:52:49.987Z,69.35
2023-04-15T14:55:52.686Z,72.07
2023-04-15T14:58:55.831Z,70.85
2023-04-15T15:01:58.804Z,71.66
2023-04-15T15:05:03.017Z,70.13
2023-04-15T15:08:08.285Z,70.15
2023-04-15T15:11:11.494Z,69.83
2023-04-15T15:14:15.569Z,69.08
2023-04-15T15:17:19.613Z,69.54
2023-04-15T15:20:23.404Z,69.00
2023-04-15T15:23:26.320Z,69.13
2023-04-15T15:26:30.018Z,69.54
2023-04-15T15:29:33.320Z,69.53
2023-04-15T15:32:36.231Z,69.56
2023-04-15T15:35:41.490Z,69.38
2023-04-15T15:38:44.202Z,69.51
2023-04-15T15:41:47.558Z,69.47
2023-04-15T15:44:52.920Z,69.41
2023-04-15T15:47:57.448Z,69.71
2023-04-15T15:51:00.185Z,69.34
2023-04-15T15:54:03.503Z,68.97
2023-04-15T15:57:06.838Z,68.52
2023-04-15T16:00:12.524Z,68.83
2023-04-15T16:03:16.233Z,71.20
2023-04-15T16:06:18.967Z,70.93
2023-04-15T16:09:22.332Z,71.62
2023-04-15T16:12:25.335Z,71.86
2023-04-15T16:15:28.333Z,72.54
2023-04-15T16:18:31.508Z,72.74
2023-04-15T16:21:35.617Z,73.38
2023-04-15T16:24:38.363Z,73.87
2023-04-15T16:27:56.517Z,73.74
2023-04-15T16:31:03.080Z,74.09
2023-04-15T16:34:06.692Z,74.85
2023-04-15T16:37:09.716Z,74.59
2023-04-15T16:40:13.076Z,75.56
2023-04-15T16:43:16.303Z,75.17
2023-04-15T16:46:19.810Z,75.35
2023-04-15T16:49:22.884Z,75.44
2023-04-15T16:52:28.406Z,76.13
2023-04-15T16:55:32.215Z,76.67
2023-04-15T16:58:35.323Z,76.91
2023-04-15T17:01:38.272Z,76.72
2023-04-15T17:04:43.569Z,76.42
2023-04-15T17:07:46.563Z,76.24
2023-04-15T17:10:51.938Z,76.48
2023-04-15T17:13:54.598Z,76.81
2023-04-15T17:16:57.837Z,77.17
2023-04-15T17:20:00.723Z,77.44
2023-04-15T17:23:04.324Z,77.57
2023-04-15T17:26:07.440Z,77.82
2023-04-15T17:29:10.826Z,78.64
2023-04-15T17:32:14.425Z,79.13
2023-04-15T17:35:17.927Z,79.47
2023-04-15T17:38:21.368Z,79.89
2023-04-15T17:41:28.283Z,80.82
2023-04-15T17:44:31.206Z,81.62
2023-04-15T17:47:34.307Z,81.74
2023-04-15T17:50:39.122Z,82.18
2023-04-15T17:53:42.409Z,82.94
2023-04-15T17:56:46.303Z,83.76
2023-04-15T17:59:50.213Z,83.43
2023-04-15T18:02:53.461Z,83.64
2023-04-15T18:05:56.757Z,84.38
2023-04-15T18:09:00.333Z,84.61
2023-04-15T18:12:08.227Z,84.30
2023-04-15T18:15:12.437Z,84.59
2023-04-15T18:18:16.211Z,85.23
2023-04-15T18:21:19.434Z,85.44
2023-04-15T18:24:22.961Z,85.12
2023-04-15T18:27:25.905Z,85.32
2023-04-15T18:30:29.766Z,85.56
2023-04-15T18:33:32.973Z,86.02
2023-04-15T18:36:36.708Z,86.19
2023-04-15T18:39:39.542Z,85.92
2023-04-15T18:42:43.609Z,85.75
2023-04-15T18:45:47.486Z,85.61
2023-04-15T18:48:50.555Z,85.75
2023-04-15T18:51:54.185Z,86.05
2023-04-15T18:54:58.174Z,85.87
2023-04-15T18:58:06.477Z,86.19
2023-04-15T19:01:12.481Z,86.01
2023-04-15T19:04:17.055Z,86.01
2023-04-15T19:07:21.226Z,85.69
2023-04-15T19:10:25.067Z,86.50
2023-04-15T19:13:29.080Z,88.19
2023-04-15T19:16:32.782Z,90.10
2023-04-15T19:19:37.200Z,90.47
2023-04-15T19:22:41.111Z,91.25
2023-04-15T19:25:44.811Z,91.25
2023-04-15T19:28:49.766Z,91.76
2023-04-15T19:31:53.990Z,91.56
2023-04-15T19:34:57.270Z,91.26
2023-04-15T19:38:00.908Z,90.41
2023-04-15T19:41:05.008Z,89.76
2023-04-15T19:44:08.712Z,89.60
2023-04-15T19:47:13.907Z,90.31
2023-04-15T19:50:20.833Z,90.59
2023-04-15T19:53:26.071Z,90.79
2023-04-15T19:56:30.778Z,90.06
2023-04-15T19:59:36.225Z,89.58
2023-04-15T20:02:40.826Z,89.23
2023-04-15T20:05:45.063Z,89.51
2023-04-15T20:08:48.589Z,88.88
2023-04-15T20:12:09.327Z,89.21
2023-04-15T20:15:16.353Z,89.58
2023-04-15T20:18:19.720Z,89.62
2023-04-15T20:21:24.821Z,89.29
2023-04-15T20:24:28.370Z,89.39
2023-04-15T20:27:39.628Z,88.94
2023-04-15T20:30:47.823Z,88.81
2023-04-15T20:33:50.767Z,88.97
2023-04-15T20:36:56.586Z,88.65
2023-04-15T20:40:00.757Z,88.63
2023-04-15T20:43:04.494Z,88.46
2023-04-15T20:46:17.865Z,88.23
2023-04-15T20:49:24.470Z,88.39
2023-04-15T20:52:27.602Z,88.18
2023-04-15T20:55:31.347Z,88.74
2023-04-15T20:58:34.427Z,88.24
2023-04-15T21:01:37.250Z,89.08
2023-04-15T21:04:41.529Z,89.74
2023-04-15T21:07:44.884Z,89.18
2023-04-15T21:10:47.959Z,89.44
2023-04-15T21:13:51.713Z,89.15
2023-04-15T21:16:54.536Z,89.37
2023-04-15T21:19:57.450Z,89.62
2023-04-15T21:23:00.196Z,89.39
2023-04-15T21:26:03.441Z,88.73
2023-04-15T21:29:08.763Z,88.71
2023-04-15T21:32:13.668Z,89.26
2023-04-15T21:35:16.414Z,89.21
2023-04-15T21:38:20.802Z,88.76
2023-04-15T21:41:25.814Z,89.82
2023-04-15T21:44:28.855Z,91.45
2023-04-15T21:47:31.791Z,92.26
2023-04-15T21:51:01.953Z,91.78
2023-04-15T21:54:04.536Z,91.10
2023-04-15T21:57:07.448Z,90.92
2023-04-15T22:00:11.714Z,90.84
2023-04-15T22:03:14.162Z,90.92
2023-04-15T22:06:17.560Z,90.60
2023-04-15T22:09:20.124Z,90.41
2023-04-15T22:12:23.768Z,91.85
2023-04-15T22:15:26.304Z,91.65
2023-04-15T22:18:29.553Z,91.27
2023-04-15T22:21:32.636Z,91.16
2023-04-15T22:24:40.129Z,91.06
2023-04-15T22:27:43.999Z,90.52
2023-04-15T22:30:46.820Z,90.35
2023-04-15T22:33:49.478Z,90.92
2023-04-15T22:36:52.666Z,91.32
2023-04-15T22:39:55.634Z,91.77
2023-04-15T22:42:59.559Z,93.47
2023-04-15T22:46:02.324Z,93.09
2023-04-15T22:49:09.866Z,92.21
2023-04-15T22:52:23.330Z,91.61
2023-04-15T22:55:32.715Z,91.55
2023-04-15T22:58:35.985Z,90.86
2023-04-15T23:01:39.155Z,89.99
2023-04-15T23:04:41.980Z,90.23
2023-04-15T23:07:44.886Z,91.01
2023-04-15T23:10:47.491Z,92.38
2023-04-15T23:13:50.871Z,93.31
2023-04-15T23:16:53.481Z,93.42
2023-04-15T23:19:56.570Z,93.25
2023-04-15T23:22:59.332Z,92.22
2023-04-15T23:26:04.024Z,92.18
2023-04-15T23:29:08.049Z,91.78
2023-04-15T23:32:11.216Z,91.29
2023-04-15T23:35:13.920Z,91.27
2023-04-15T23:38:16.870Z,91.14
2023-04-15T23:41:19.528Z,91.40
2023-04-15T23:44:22.866Z,91.70
2023-04-15T23:47:25.547Z,92.01
2023-04-15T23:50:28.665Z,92.44
2023-04-15T23:53:31.441Z,92.58
2023-04-15T23:56:34.812Z,93.39
2023-04-15T23:59:37.887Z,93.03
